sensor_id;sensor_type;location;lat;lon;timestamp;temperature;humidity
3478;DHT22;37937;61.490;23.506;2023-05-24T00:00:17;10.50;1.00
3478;DHT22;37937;61.490;23.506;2023-05-24T00:02:43;10.50;1.00
3478;DHT22;37937;61.490;23.506;2023-05-24T00:05:08;10.50;1.00
3478;DHT22;37937;61.490;23.506;2023-05-24T00:07:35;10.50;1.00
3478;DHT22;37937;61.490;23.506;2023-05-24T00:10:02;10.50;1.00
3478;DHT22;37937;61.490;23.506;2023-05-24T00:12:27;10.40;1.00
3478;DHT22;37937;61.490;23.506;2023-05-24T00:14:53;10.30;1.00
3478;DHT22;37937;61.490;23.506;2023-05-24T00:17:18;10.40;1.00
3478;DHT22;37937;61.490;23.506;2023-05-24T00:19:44;10.50;1.00
3478;DHT22;37937;61.490;23.506;2023-05-24T00:22:10;10.40;1.00
3478;DHT22;37937;61.490;23.506;2023-05-24T00:24:36;10.50;1.00
3478;DHT22;37937;61.490;23.506;2023-05-24T00:27:01;10.40;1.00
3478;DHT22;37937;61.490;23.506;2023-05-24T00:29:27;10.30;1.00
3478;DHT22;37937;61.490;23.506;2023-05-24T00:31:53;10.30;1.00
3478;DHT22;37937;61.490;23.506;2023-05-24T00:34:18;10.20;1.00
3478;DHT22;37937;61.490;23.506;2023-05-24T00:36:44;10.30;1.00
3478;DHT22;37937;61.490;23.506;2023-05-24T00:39:10;10.30;1.00
3478;DHT22;37937;61.490;23.506;2023-05-24T00:41:35;10.20;1.00
3478;DHT22;37937;61.490;23.506;2023-05-24T00:44:01;10.40;1.00
3478;DHT22;37937;61.490;23.506;2023-05-24T00:46:33;10.50;1.00
3478;DHT22;37937;61.490;23.506;2023-05-24T00:48:59;10.60;1.00
3478;DHT22;37937;61.490;23.506;2023-05-24T00:51:25;10.60;1.00
3478;DHT22;37937;61.490;23.506;2023-05-24T00:53:52;10.50;1.00
3478;DHT22;37937;61.490;23.506;2023-05-24T00:56:18;10.30;1.00
3478;DHT22;37937;61.490;23.506;2023-05-24T00:58:44;10.10;1.00
3478;DHT22;37937;61.490;23.506;2023-05-24T01:01:10;9.90;1.00
3478;DHT22;37937;61.490;23.506;2023-05-24T01:03:36;9.90;1.00
3478;DHT22;37937;61.490;23.506;2023-05-24T01:06:02;9.90;1.00
3478;DHT22;37937;61.490;23.506;2023-05-24T01:08:37;9.90;1.00
3478;DHT22;37937;61.490;23.506;2023-05-24T01:13:43;9.80;1.00
3478;DHT22;37937;61.490;23.506;2023-05-24T01:19:04;9.80;1.00
3478;DHT22;37937;61.490;23.506;2023-05-24T01:21:49;10.00;1.00
3478;DHT22;37937;61.490;23.506;2023-05-24T01:24:24;10.00;1.00
3478;DHT22;37937;61.490;23.506;2023-05-24T01:27:05;10.20;1.00
3478;DHT22;37937;61.490;23.506;2023-05-24T01:29:32;10.20;1.00
3478;DHT22;37937;61.490;23.506;2023-05-24T01:31:58;10.10;1.00
3478;DHT22;37937;61.490;23.506;2023-05-24T01:34:24;10.20;1.00
3478;DHT22;37937;61.490;23.506;2023-05-24T01:36:50;10.20;1.00
3478;DHT22;37937;61.490;23.506;2023-05-24T01:39:16;10.20;1.00
3478;DHT22;37937;61.490;23.506;2023-05-24T01:44:12;9.70;1.00
3478;DHT22;37937;61.490;23.506;2023-05-24T01:46:40;9.50;1.00
3478;DHT22;37937;61.490;23.506;2023-05-24T01:51:37;9.40;1.00
3478;DHT22;37937;61.490;23.506;2023-05-24T01:54:04;9.30;1.00
3478;DHT22;37937;61.490;23.506;2023-05-24T01:56:31;9.10;1.00
3478;DHT22;37937;61.490;23.506;2023-05-24T01:58:57;9.20;1.60
3478;DHT22;37937;61.490;23.506;2023-05-24T02:01:23;9.30;1.00
3478;DHT22;37937;61.490;23.506;2023-05-24T02:03:50;9.20;1.10
3478;DHT22;37937;61.490;23.506;2023-05-24T02:06:16;9.40;1.00
3478;DHT22;37937;61.490;23.506;2023-05-24T02:08:41;9.40;1.00
3478;DHT22;37937;61.490;23.506;2023-05-24T02:11:07;9.40;1.00
3478;DHT22;37937;61.490;23.506;2023-05-24T02:13:32;9.30;1.00
3478;DHT22;37937;61.490;23.506;2023-05-24T02:15:58;9.40;1.30
3478;DHT22;37937;61.490;23.506;2023-05-24T02:18:23;9.00;4.70
3478;DHT22;37937;61.490;23.506;2023-05-24T02:20:49;8.90;6.10
3478;DHT22;37937;61.490;23.506;2023-05-24T02:23:15;9.20;1.00
3478;DHT22;37937;61.490;23.506;2023-05-24T02:25:40;9.30;1.00
3478;DHT22;37937;61.490;23.506;2023-05-24T02:28:06;9.50;1.00
3478;DHT22;37937;61.490;23.506;2023-05-24T02:30:32;9.40;1.80
3478;DHT22;37937;61.490;23.506;2023-05-24T02:32:57;9.50;1.00
3478;DHT22;37937;61.490;23.506;2023-05-24T02:35:23;9.40;1.00
3478;DHT22;37937;61.490;23.506;2023-05-24T02:37:48;9.60;1.00
3478;DHT22;37937;61.490;23.506;2023-05-24T02:40:14;9.70;1.00
3478;DHT22;37937;61.490;23.506;2023-05-24T02:42:40;9.70;1.00
3478;DHT22;37937;61.490;23.506;2023-05-24T02:45:06;9.70;1.30
3478;DHT22;37937;61.490;23.506;2023-05-24T02:47:31;9.60;1.60
3478;DHT22;37937;61.490;23.506;2023-05-24T02:49:57;9.70;1.00
3478;DHT22;37937;61.490;23.506;2023-05-24T02:52:23;9.80;1.00
3478;DHT22;37937;61.490;23.506;2023-05-24T02:54:48;9.60;7.60
3478;DHT22;37937;61.490;23.506;2023-05-24T02:57:14;9.50;3.40
3478;DHT22;37937;61.490;23.506;2023-05-24T02:59:41;9.50;8.70
3478;DHT22;37937;61.490;23.506;2023-05-24T03:02:06;9.40;17.90
3478;DHT22;37937;61.490;23.506;2023-05-24T03:04:32;9.40;14.10
3478;DHT22;37937;61.490;23.506;2023-05-24T03:06:58;9.40;18.60
3478;DHT22;37937;61.490;23.506;2023-05-24T03:09:23;9.40;17.90
3478;DHT22;37937;61.490;23.506;2023-05-24T03:11:49;9.40;29.70
3478;DHT22;37937;61.490;23.506;2023-05-24T03:14:17;9.30;31.00
3478;DHT22;37937;61.490;23.506;2023-05-24T03:16:44;9.40;34.50
3478;DHT22;37937;61.490;23.506;2023-05-24T03:19:10;9.50;35.70
3478;DHT22;37937;61.490;23.506;2023-05-24T03:21:36;9.60;44.80
3478;DHT22;37937;61.490;23.506;2023-05-24T03:24:01;9.70;50.50
3478;DHT22;37937;61.490;23.506;2023-05-24T03:26:27;9.90;52.20
3478;DHT22;37937;61.490;23.506;2023-05-24T03:28:52;10.10;53.40
3478;DHT22;37937;61.490;23.506;2023-05-24T03:31:18;10.20;55.00
3478;DHT22;37937;61.490;23.506;2023-05-24T03:33:45;10.30;49.60
3478;DHT22;37937;61.490;23.506;2023-05-24T03:36:10;10.50;46.70
3478;DHT22;37937;61.490;23.506;2023-05-24T03:38:36;10.60;43.30
3478;DHT22;37937;61.490;23.506;2023-05-24T03:41:01;10.70;44.90
3478;DHT22;37937;61.490;23.506;2023-05-24T03:43:28;10.70;50.60
3478;DHT22;37937;61.490;23.506;2023-05-24T03:45:53;10.70;54.30
3478;DHT22;37937;61.490;23.506;2023-05-24T03:48:19;10.80;58.50
3478;DHT22;37937;61.490;23.506;2023-05-24T03:50:45;10.80;69.80
3478;DHT22;37937;61.490;23.506;2023-05-24T03:53:11;10.90;81.90
3478;DHT22;37937;61.490;23.506;2023-05-24T03:55:36;11.10;80.30
3478;DHT22;37937;61.490;23.506;2023-05-24T03:58:02;11.20;84.20
3478;DHT22;37937;61.490;23.506;2023-05-24T04:00:28;11.40;89.00
3478;DHT22;37937;61.490;23.506;2023-05-24T04:02:53;11.60;90.00
3478;DHT22;37937;61.490;23.506;2023-05-24T04:05:21;12.00;84.10
3478;DHT22;37937;61.490;23.506;2023-05-24T04:07:51;12.50;67.90
3478;DHT22;37937;61.490;23.506;2023-05-24T04:10:16;13.20;53.40
3478;DHT22;37937;61.490;23.506;2023-05-24T04:12:43;13.80;38.80
3478;DHT22;37937;61.490;23.506;2023-05-24T04:15:09;14.60;28.00
3478;DHT22;37937;61.490;23.506;2023-05-24T04:17:39;15.30;16.30
3478;DHT22;37937;61.490;23.506;2023-05-24T04:20:04;15.90;9.90
3478;DHT22;37937;61.490;23.506;2023-05-24T04:22:30;16.50;8.70
3478;DHT22;37937;61.490;23.506;2023-05-24T04:24:56;17.00;3.60
3478;DHT22;37937;61.490;23.506;2023-05-24T04:27:22;17.40;1.00
3478;DHT22;37937;61.490;23.506;2023-05-24T04:29:50;17.40;1.00
3478;DHT22;37937;61.490;23.506;2023-05-24T04:32:17;17.50;1.00
3478;DHT22;37937;61.490;23.506;2023-05-24T04:34:44;18.10;1.00
3478;DHT22;37937;61.490;23.506;2023-05-24T04:37:10;18.30;1.00
3478;DHT22;37937;61.490;23.506;2023-05-24T04:39:38;18.90;1.00
3478;DHT22;37937;61.490;23.506;2023-05-24T04:42:04;19.00;1.00
3478;DHT22;37937;61.490;23.506;2023-05-24T04:44:29;19.40;1.00
3478;DHT22;37937;61.490;23.506;2023-05-24T04:46:55;19.90;1.00
3478;DHT22;37937;61.490;23.506;2023-05-24T04:49:22;20.20;1.00
3478;DHT22;37937;61.490;23.506;2023-05-24T04:51:47;20.30;1.00
3478;DHT22;37937;61.490;23.506;2023-05-24T04:54:13;20.50;1.00
3478;DHT22;37937;61.490;23.506;2023-05-24T04:56:39;20.30;1.00
3478;DHT22;37937;61.490;23.506;2023-05-24T04:59:05;20.00;1.00
3478;DHT22;37937;61.490;23.506;2023-05-24T05:01:30;20.40;1.00
3478;DHT22;37937;61.490;23.506;2023-05-24T05:03:57;20.30;1.00
3478;DHT22;37937;61.490;23.506;2023-05-24T05:06:22;20.10;1.00
3478;DHT22;37937;61.490;23.506;2023-05-24T05:08:49;20.40;1.00
3478;DHT22;37937;61.490;23.506;2023-05-24T05:11:14;20.40;1.00
3478;DHT22;37937;61.490;23.506;2023-05-24T05:13:41;20.80;1.00
3478;DHT22;37937;61.490;23.506;2023-05-24T05:16:06;21.00;1.00
3478;DHT22;37937;61.490;23.506;2023-05-24T05:18:32;21.20;1.00
3478;DHT22;37937;61.490;23.506;2023-05-24T05:20:58;21.70;1.00
3478;DHT22;37937;61.490;23.506;2023-05-24T05:23:23;21.90;1.00
3478;DHT22;37937;61.490;23.506;2023-05-24T05:25:49;21.90;1.00
3478;DHT22;37937;61.490;23.506;2023-05-24T05:28:15;22.30;1.00
3478;DHT22;37937;61.490;23.506;2023-05-24T05:30:41;20.80;1.00
3478;DHT22;37937;61.490;23.506;2023-05-24T05:33:06;20.90;1.00
3478;DHT22;37937;61.490;23.506;2023-05-24T05:35:32;21.80;1.00
3478;DHT22;37937;61.490;23.506;2023-05-24T05:37:57;21.70;1.00
3478;DHT22;37937;61.490;23.506;2023-05-24T05:40:23;21.80;1.00
3478;DHT22;37937;61.490;23.506;2023-05-24T05:42:49;21.60;1.00
3478;DHT22;37937;61.490;23.506;2023-05-24T05:45:15;21.70;1.00
3478;DHT22;37937;61.490;23.506;2023-05-24T05:47:40;22.10;1.00
3478;DHT22;37937;61.490;23.506;2023-05-24T05:50:07;21.40;1.00
3478;DHT22;37937;61.490;23.506;2023-05-24T05:52:33;21.40;1.00
3478;DHT22;37937;61.490;23.506;2023-05-24T05:54:59;21.70;1.00
3478;DHT22;37937;61.490;23.506;2023-05-24T05:57:25;22.50;1.00
3478;DHT22;37937;61.490;23.506;2023-05-24T05:59:50;22.50;1.00
3478;DHT22;37937;61.490;23.506;2023-05-24T06:02:16;22.60;1.00
3478;DHT22;37937;61.490;23.506;2023-05-24T06:04:44;22.20;1.00
3478;DHT22;37937;61.490;23.506;2023-05-24T06:07:09;22.70;1.00
3478;DHT22;37937;61.490;23.506;2023-05-24T06:09:35;23.60;1.00
3478;DHT22;37937;61.490;23.506;2023-05-24T06:12:00;23.60;1.00
3478;DHT22;37937;61.490;23.506;2023-05-24T06:14:26;23.10;1.00
3478;DHT22;37937;61.490;23.506;2023-05-24T06:16:52;23.50;1.00
3478;DHT22;37937;61.490;23.506;2023-05-24T06:19:18;23.10;1.00
3478;DHT22;37937;61.490;23.506;2023-05-24T06:21:46;23.90;1.00
3478;DHT22;37937;61.490;23.506;2023-05-24T06:24:13;24.60;1.00
3478;DHT22;37937;61.490;23.506;2023-05-24T06:26:39;24.80;1.00
3478;DHT22;37937;61.490;23.506;2023-05-24T06:29:04;25.00;1.00
3478;DHT22;37937;61.490;23.506;2023-05-24T06:31:31;23.70;1.00
3478;DHT22;37937;61.490;23.506;2023-05-24T06:33:57;22.90;1.00
3478;DHT22;37937;61.490;23.506;2023-05-24T06:36:22;23.50;1.00
3478;DHT22;37937;61.490;23.506;2023-05-24T06:38:48;24.00;1.00
3478;DHT22;37937;61.490;23.506;2023-05-24T06:41:16;24.20;1.00
3478;DHT22;37937;61.490;23.506;2023-05-24T06:43:42;24.20;1.00
3478;DHT22;37937;61.490;23.506;2023-05-24T06:46:08;23.80;1.00
3478;DHT22;37937;61.490;23.506;2023-05-24T06:48:34;24.30;1.00
3478;DHT22;37937;61.490;23.506;2023-05-24T06:50:59;24.60;1.00
3478;DHT22;37937;61.490;23.506;2023-05-24T06:53:25;24.90;1.00
3478;DHT22;37937;61.490;23.506;2023-05-24T06:55:51;24.10;1.00
3478;DHT22;37937;61.490;23.506;2023-05-24T06:58:17;24.50;1.00
3478;DHT22;37937;61.490;23.506;2023-05-24T07:00:42;24.20;1.00
3478;DHT22;37937;61.490;23.506;2023-05-24T07:03:11;23.30;1.00
3478;DHT22;37937;61.490;23.506;2023-05-24T07:05:37;22.90;1.00
3478;DHT22;37937;61.490;23.506;2023-05-24T07:08:03;22.00;1.00
3478;DHT22;37937;61.490;23.506;2023-05-24T07:10:28;22.70;1.00
3478;DHT22;37937;61.490;23.506;2023-05-24T07:12:54;23.20;1.00
3478;DHT22;37937;61.490;23.506;2023-05-24T07:15:20;23.20;1.00
3478;DHT22;37937;61.490;23.506;2023-05-24T07:17:46;23.50;1.00
3478;DHT22;37937;61.490;23.506;2023-05-24T07:20:12;23.70;1.00
3478;DHT22;37937;61.490;23.506;2023-05-24T07:22:39;23.10;1.00
3478;DHT22;37937;61.490;23.506;2023-05-24T07:25:05;22.80;1.00
3478;DHT22;37937;61.490;23.506;2023-05-24T07:27:31;23.00;1.00
3478;DHT22;37937;61.490;23.506;2023-05-24T07:29:56;23.40;1.00
3478;DHT22;37937;61.490;23.506;2023-05-24T07:32:22;23.80;1.00
3478;DHT22;37937;61.490;23.506;2023-05-24T07:34:48;23.50;1.00
3478;DHT22;37937;61.490;23.506;2023-05-24T07:37:14;23.30;1.00
3478;DHT22;37937;61.490;23.506;2023-05-24T07:39:41;24.10;1.00
3478;DHT22;37937;61.490;23.506;2023-05-24T07:42:07;23.60;1.00
3478;DHT22;37937;61.490;23.506;2023-05-24T07:44:33;24.10;1.00
3478;DHT22;37937;61.490;23.506;2023-05-24T07:46:59;24.10;1.00
3478;DHT22;37937;61.490;23.506;2023-05-24T07:49:27;24.70;1.00
3478;DHT22;37937;61.490;23.506;2023-05-24T07:51:52;25.00;1.00
3478;DHT22;37937;61.490;23.506;2023-05-24T07:54:21;25.10;1.00
3478;DHT22;37937;61.490;23.506;2023-05-24T07:56:47;25.20;1.00
3478;DHT22;37937;61.490;23.506;2023-05-24T07:59:12;25.60;1.00
3478;DHT22;37937;61.490;23.506;2023-05-24T08:01:38;25.00;1.00
3478;DHT22;37937;61.490;23.506;2023-05-24T08:04:04;25.20;1.00
3478;DHT22;37937;61.490;23.506;2023-05-24T08:06:29;25.60;1.00
3478;DHT22;37937;61.490;23.506;2023-05-24T08:08:57;25.60;1.00
3478;DHT22;37937;61.490;23.506;2023-05-24T08:11:22;26.10;1.00
3478;DHT22;37937;61.490;23.506;2023-05-24T08:13:48;25.70;1.00
3478;DHT22;37937;61.490;23.506;2023-05-24T08:16:13;25.80;1.00
3478;DHT22;37937;61.490;23.506;2023-05-24T08:18:39;25.50;1.00
3478;DHT22;37937;61.490;23.506;2023-05-24T08:21:05;25.60;1.00
3478;DHT22;37937;61.490;23.506;2023-05-24T08:23:30;25.70;1.00
3478;DHT22;37937;61.490;23.506;2023-05-24T08:25:56;25.80;1.00
3478;DHT22;37937;61.490;23.506;2023-05-24T08:28:22;25.90;1.00
3478;DHT22;37937;61.490;23.506;2023-05-24T08:30:48;26.30;1.00
3478;DHT22;37937;61.490;23.506;2023-05-24T08:33:14;26.00;1.00
3478;DHT22;37937;61.490;23.506;2023-05-24T08:35:39;25.90;1.00
3478;DHT22;37937;61.490;23.506;2023-05-24T08:38:05;25.70;1.00
3478;DHT22;37937;61.490;23.506;2023-05-24T08:40:31;24.80;1.00
3478;DHT22;37937;61.490;23.506;2023-05-24T08:42:58;25.30;1.00
3478;DHT22;37937;61.490;23.506;2023-05-24T08:45:24;25.60;1.00
3478;DHT22;37937;61.490;23.506;2023-05-24T08:47:50;25.70;1.00
3478;DHT22;37937;61.490;23.506;2023-05-24T08:50:17;25.00;1.00
3478;DHT22;37937;61.490;23.506;2023-05-24T08:52:43;24.50;1.00
3478;DHT22;37937;61.490;23.506;2023-05-24T08:55:10;25.20;1.00
3478;DHT22;37937;61.490;23.506;2023-05-24T08:57:35;25.70;1.00
3478;DHT22;37937;61.490;23.506;2023-05-24T09:00:09;26.10;1.00
3478;DHT22;37937;61.490;23.506;2023-05-24T09:02:38;26.30;1.00
3478;DHT22;37937;61.490;23.506;2023-05-24T09:05:04;26.60;1.00
3478;DHT22;37937;61.490;23.506;2023-05-24T09:07:33;26.10;1.00
3478;DHT22;37937;61.490;23.506;2023-05-24T09:10:03;25.80;1.00
3478;DHT22;37937;61.490;23.506;2023-05-24T09:12:30;25.80;1.00
3478;DHT22;37937;61.490;23.506;2023-05-24T09:14:57;26.10;1.00
3478;DHT22;37937;61.490;23.506;2023-05-24T09:17:23;26.30;1.00
3478;DHT22;37937;61.490;23.506;2023-05-24T09:19:49;26.40;1.00
3478;DHT22;37937;61.490;23.506;2023-05-24T09:22:16;26.80;1.00
3478;DHT22;37937;61.490;23.506;2023-05-24T09:24:57;27.30;1.00
3478;DHT22;37937;61.490;23.506;2023-05-24T09:27:23;27.40;1.00
3478;DHT22;37937;61.490;23.506;2023-05-24T09:29:49;27.70;1.00
3478;DHT22;37937;61.490;23.506;2023-05-24T09:32:16;27.90;1.00
3478;DHT22;37937;61.490;23.506;2023-05-24T09:34:42;27.60;1.00
3478;DHT22;37937;61.490;23.506;2023-05-24T09:37:12;27.60;1.00
3478;DHT22;37937;61.490;23.506;2023-05-24T09:39:41;27.70;1.00
3478;DHT22;37937;61.490;23.506;2023-05-24T09:42:06;28.30;1.00
3478;DHT22;37937;61.490;23.506;2023-05-24T09:44:32;27.70;1.00
3478;DHT22;37937;61.490;23.506;2023-05-24T09:47:01;28.10;1.00
3478;DHT22;37937;61.490;23.506;2023-05-24T09:49:29;28.10;1.00
3478;DHT22;37937;61.490;23.506;2023-05-24T09:51:55;28.80;1.00
3478;DHT22;37937;61.490;23.506;2023-05-24T09:54:21;28.40;1.00
3478;DHT22;37937;61.490;23.506;2023-05-24T09:56:47;28.80;1.00
3478;DHT22;37937;61.490;23.506;2023-05-24T09:59:12;28.60;1.00
3478;DHT22;37937;61.490;23.506;2023-05-24T10:01:38;27.70;1.00
3478;DHT22;37937;61.490;23.506;2023-05-24T10:04:04;28.60;1.00
3478;DHT22;37937;61.490;23.506;2023-05-24T10:06:33;28.80;1.00
3478;DHT22;37937;61.490;23.506;2023-05-24T10:09:02;29.30;1.00
3478;DHT22;37937;61.490;23.506;2023-05-24T10:11:31;29.50;1.00
3478;DHT22;37937;61.490;23.506;2023-05-24T10:13:56;29.10;1.00
3478;DHT22;37937;61.490;23.506;2023-05-24T10:16:23;28.90;1.00
3478;DHT22;37937;61.490;23.506;2023-05-24T10:18:49;29.30;1.00
3478;DHT22;37937;61.490;23.506;2023-05-24T10:21:15;29.40;1.00
3478;DHT22;37937;61.490;23.506;2023-05-24T10:23:42;29.30;1.00
3478;DHT22;37937;61.490;23.506;2023-05-24T10:26:09;29.20;1.00
3478;DHT22;37937;61.490;23.506;2023-05-24T10:28:37;29.00;1.00
3478;DHT22;37937;61.490;23.506;2023-05-24T10:33:31;28.20;1.00
3478;DHT22;37937;61.490;23.506;2023-05-24T10:35:59;28.80;1.00
3478;DHT22;37937;61.490;23.506;2023-05-24T10:38:25;28.80;1.00
3478;DHT22;37937;61.490;23.506;2023-05-24T10:40:50;28.80;1.00
3478;DHT22;37937;61.490;23.506;2023-05-24T10:43:16;28.80;1.00
3478;DHT22;37937;61.490;23.506;2023-05-24T10:45:42;28.80;1.00
3478;DHT22;37937;61.490;23.506;2023-05-24T10:50:40;29.20;1.00
3478;DHT22;37937;61.490;23.506;2023-05-24T10:53:09;29.20;1.00
3478;DHT22;37937;61.490;23.506;2023-05-24T10:55:38;28.90;1.00
3478;DHT22;37937;61.490;23.506;2023-05-24T10:58:15;28.70;1.00
3478;DHT22;37937;61.490;23.506;2023-05-24T11:00:41;28.10;1.00
3478;DHT22;37937;61.490;23.506;2023-05-24T11:03:08;28.10;1.00
3478;DHT22;37937;61.490;23.506;2023-05-24T11:05:47;27.80;1.00
3478;DHT22;37937;61.490;23.506;2023-05-24T11:08:22;27.80;1.00
3478;DHT22;37937;61.490;23.506;2023-05-24T11:11:00;28.00;1.00
3478;DHT22;37937;61.490;23.506;2023-05-24T11:13:26;27.20;1.00
3478;DHT22;37937;61.490;23.506;2023-05-24T11:15:51;27.60;1.00
3478;DHT22;37937;61.490;23.506;2023-05-24T11:18:20;27.60;1.00
3478;DHT22;37937;61.490;23.506;2023-05-24T11:20:46;27.70;1.00
3478;DHT22;37937;61.490;23.506;2023-05-24T11:23:13;27.70;1.00
3478;DHT22;37937;61.490;23.506;2023-05-24T11:25:39;27.70;1.00
3478;DHT22;37937;61.490;23.506;2023-05-24T11:28:05;27.60;1.00
3478;DHT22;37937;61.490;23.506;2023-05-24T11:30:31;27.50;1.00
3478;DHT22;37937;61.490;23.506;2023-05-24T11:32:58;27.50;1.00
3478;DHT22;37937;61.490;23.506;2023-05-24T11:35:26;27.30;1.00
3478;DHT22;37937;61.490;23.506;2023-05-24T11:37:55;27.60;1.00
3478;DHT22;37937;61.490;23.506;2023-05-24T11:40:21;28.00;1.00
3478;DHT22;37937;61.490;23.506;2023-05-24T11:42:48;27.80;1.00
3478;DHT22;37937;61.490;23.506;2023-05-24T11:45:14;27.30;1.00
3478;DHT22;37937;61.490;23.506;2023-05-24T11:47:42;27.00;1.00
3478;DHT22;37937;61.490;23.506;2023-05-24T11:50:07;27.30;1.00
3478;DHT22;37937;61.490;23.506;2023-05-24T11:52:37;27.50;1.00
3478;DHT22;37937;61.490;23.506;2023-05-24T11:55:02;26.90;1.00
3478;DHT22;37937;61.490;23.506;2023-05-24T11:57:29;27.30;1.00
3478;DHT22;37937;61.490;23.506;2023-05-24T12:00:00;27.10;1.00
3478;DHT22;37937;61.490;23.506;2023-05-24T12:02:28;27.00;1.00
3478;DHT22;37937;61.490;23.506;2023-05-24T12:04:53;26.80;1.00
3478;DHT22;37937;61.490;23.506;2023-05-24T12:07:19;26.90;1.00
3478;DHT22;37937;61.490;23.506;2023-05-24T12:09:48;26.90;1.00
3478;DHT22;37937;61.490;23.506;2023-05-24T12:12:14;27.20;1.00
3478;DHT22;37937;61.490;23.506;2023-05-24T12:14:40;27.30;1.00
3478;DHT22;37937;61.490;23.506;2023-05-24T12:17:05;27.10;1.00
3478;DHT22;37937;61.490;23.506;2023-05-24T12:19:38;27.10;1.00
3478;DHT22;37937;61.490;23.506;2023-05-24T12:22:07;26.90;1.00
3478;DHT22;37937;61.490;23.506;2023-05-24T12:24:33;26.80;1.00
3478;DHT22;37937;61.490;23.506;2023-05-24T12:27:00;26.80;1.00
3478;DHT22;37937;61.490;23.506;2023-05-24T12:29:33;26.70;1.00
3478;DHT22;37937;61.490;23.506;2023-05-24T12:31:58;26.60;1.00
3478;DHT22;37937;61.490;23.506;2023-05-24T12:34:24;26.30;1.00
3478;DHT22;37937;61.490;23.506;2023-05-24T12:36:50;26.20;1.00
3478;DHT22;37937;61.490;23.506;2023-05-24T12:39:24;26.20;1.00
3478;DHT22;37937;61.490;23.506;2023-05-24T12:41:55;26.30;1.00
3478;DHT22;37937;61.490;23.506;2023-05-24T12:44:24;26.00;1.00
3478;DHT22;37937;61.490;23.506;2023-05-24T12:46:51;25.90;1.00
3478;DHT22;37937;61.490;23.506;2023-05-24T12:49:17;25.90;1.00
3478;DHT22;37937;61.490;23.506;2023-05-24T12:51:43;25.90;1.00
3478;DHT22;37937;61.490;23.506;2023-05-24T12:54:08;26.00;1.00
3478;DHT22;37937;61.490;23.506;2023-05-24T12:56:34;25.90;1.00
3478;DHT22;37937;61.490;23.506;2023-05-24T12:59:00;25.50;1.00
3478;DHT22;37937;61.490;23.506;2023-05-24T13:01:25;25.50;1.00
3478;DHT22;37937;61.490;23.506;2023-05-24T13:03:51;25.70;1.00
3478;DHT22;37937;61.490;23.506;2023-05-24T13:06:18;25.20;1.00
3478;DHT22;37937;61.490;23.506;2023-05-24T13:08:43;25.50;1.00
3478;DHT22;37937;61.490;23.506;2023-05-24T13:11:09;25.90;1.00
3478;DHT22;37937;61.490;23.506;2023-05-24T13:13:35;26.00;1.00
3478;DHT22;37937;61.490;23.506;2023-05-24T13:16:02;25.70;1.00
3478;DHT22;37937;61.490;23.506;2023-05-24T13:18:31;25.70;1.00
3478;DHT22;37937;61.490;23.506;2023-05-24T13:20:57;25.80;1.00
3478;DHT22;37937;61.490;23.506;2023-05-24T13:23:27;25.90;1.00
3478;DHT22;37937;61.490;23.506;2023-05-24T13:25:53;25.80;1.00
3478;DHT22;37937;61.490;23.506;2023-05-24T13:28:19;25.70;1.00
3478;DHT22;37937;61.490;23.506;2023-05-24T13:30:45;25.80;1.00
3478;DHT22;37937;61.490;23.506;2023-05-24T13:33:11;25.70;1.00
3478;DHT22;37937;61.490;23.506;2023-05-24T13:35:37;25.50;1.00
3478;DHT22;37937;61.490;23.506;2023-05-24T13:38:04;25.40;1.00
3478;DHT22;37937;61.490;23.506;2023-05-24T13:40:30;25.30;1.00
3478;DHT22;37937;61.490;23.506;2023-05-24T13:42:56;25.20;1.00
3478;DHT22;37937;61.490;23.506;2023-05-24T13:45:21;25.20;1.00
3478;DHT22;37937;61.490;23.506;2023-05-24T13:47:47;25.00;1.00
3478;DHT22;37937;61.490;23.506;2023-05-24T13:50:13;25.10;1.00
3478;DHT22;37937;61.490;23.506;2023-05-24T13:52:39;25.10;1.00
3478;DHT22;37937;61.490;23.506;2023-05-24T13:55:04;25.10;1.00
3478;DHT22;37937;61.490;23.506;2023-05-24T13:57:31;25.00;1.00
3478;DHT22;37937;61.490;23.506;2023-05-24T13:59:57;25.00;1.00
3478;DHT22;37937;61.490;23.506;2023-05-24T14:02:23;24.80;1.00
3478;DHT22;37937;61.490;23.506;2023-05-24T14:04:49;24.70;1.00
3478;DHT22;37937;61.490;23.506;2023-05-24T14:07:14;24.60;1.00
3478;DHT22;37937;61.490;23.506;2023-05-24T14:09:40;24.60;1.00
3478;DHT22;37937;61.490;23.506;2023-05-24T14:12:06;24.50;1.00
3478;DHT22;37937;61.490;23.506;2023-05-24T14:14:32;24.40;1.00
3478;DHT22;37937;61.490;23.506;2023-05-24T14:16:58;24.40;1.00
3478;DHT22;37937;61.490;23.506;2023-05-24T14:19:24;24.20;1.00
3478;DHT22;37937;61.490;23.506;2023-05-24T14:21:49;24.10;1.00
3478;DHT22;37937;61.490;23.506;2023-05-24T14:24:15;24.10;1.00
3478;DHT22;37937;61.490;23.506;2023-05-24T14:26:41;24.20;1.00
3478;DHT22;37937;61.490;23.506;2023-05-24T14:29:07;24.00;1.00
3478;DHT22;37937;61.490;23.506;2023-05-24T14:31:32;23.70;1.00
3478;DHT22;37937;61.490;23.506;2023-05-24T14:34:00;23.70;1.00
3478;DHT22;37937;61.490;23.506;2023-05-24T14:36:25;23.70;1.00
3478;DHT22;37937;61.490;23.506;2023-05-24T14:38:51;23.70;1.00
3478;DHT22;37937;61.490;23.506;2023-05-24T14:41:16;23.70;1.00
3478;DHT22;37937;61.490;23.506;2023-05-24T14:43:42;23.70;1.00
3478;DHT22;37937;61.490;23.506;2023-05-24T14:46:08;23.60;1.00
3478;DHT22;37937;61.490;23.506;2023-05-24T14:48:33;23.60;1.00
3478;DHT22;37937;61.490;23.506;2023-05-24T14:51:01;23.50;1.00
3478;DHT22;37937;61.490;23.506;2023-05-24T14:53:27;23.50;1.00
3478;DHT22;37937;61.490;23.506;2023-05-24T14:55:52;23.50;1.00
3478;DHT22;37937;61.490;23.506;2023-05-24T14:58:18;23.50;1.00
3478;DHT22;37937;61.490;23.506;2023-05-24T15:00:44;23.40;1.00
3478;DHT22;37937;61.490;23.506;2023-05-24T15:03:10;23.40;1.00
3478;DHT22;37937;61.490;23.506;2023-05-24T15:05:36;23.30;1.00
3478;DHT22;37937;61.490;23.506;2023-05-24T15:08:02;23.30;1.00
3478;DHT22;37937;61.490;23.506;2023-05-24T15:10:29;23.10;1.00
3478;DHT22;37937;61.490;23.506;2023-05-24T15:12:55;23.20;1.00
3478;DHT22;37937;61.490;23.506;2023-05-24T15:15:21;23.10;1.00
3478;DHT22;37937;61.490;23.506;2023-05-24T15:17:46;23.10;1.00
3478;DHT22;37937;61.490;23.506;2023-05-24T15:20:12;23.10;1.00
3478;DHT22;37937;61.490;23.506;2023-05-24T15:22:38;22.90;1.00
3478;DHT22;37937;61.490;23.506;2023-05-24T15:25:03;23.00;1.00
3478;DHT22;37937;61.490;23.506;2023-05-24T15:27:29;22.90;1.00
3478;DHT22;37937;61.490;23.506;2023-05-24T15:29:55;22.90;1.00
3478;DHT22;37937;61.490;23.506;2023-05-24T15:32:25;22.90;1.00
3478;DHT22;37937;61.490;23.506;2023-05-24T15:34:51;22.80;1.00
3478;DHT22;37937;61.490;23.506;2023-05-24T15:37:19;22.70;1.00
3478;DHT22;37937;61.490;23.506;2023-05-24T15:39:46;22.70;1.00
3478;DHT22;37937;61.490;23.506;2023-05-24T15:42:13;22.70;1.00
3478;DHT22;37937;61.490;23.506;2023-05-24T15:44:38;22.70;1.00
3478;DHT22;37937;61.490;23.506;2023-05-24T15:47:04;22.70;1.00
3478;DHT22;37937;61.490;23.506;2023-05-24T15:49:30;22.60;1.00
3478;DHT22;37937;61.490;23.506;2023-05-24T15:51:55;22.60;1.00
3478;DHT22;37937;61.490;23.506;2023-05-24T15:54:21;22.60;1.00
3478;DHT22;37937;61.490;23.506;2023-05-24T15:56:46;22.60;1.00